Time;durP1;ratioP1;P1;durP2;ratioP2;P2;SDS_P1;SDS_P2;PMS_P1;PMS_P2;Temp;Humidity;BMP_temperature;BMP_pressure;BME280_temperature;BME280_humidity;BME280_pressure;Samples;Min_cycle;Max_cycle;Signal;HPM_P1;HPM_P2
2023/04/24 00:01:07;;;;;;;1.70;0.50;;;;;;;12.13;82.72;99387.94;109483;1253;60520;-70
2023/04/24 00:03:34;;;;;;;2.40;0.70;;;;;;;12.10;82.66;99384.34;109466;1253;73574;-70
2023/04/24 00:06:02;;;;;;;1.70;0.70;;;;;;;12.06;83.01;99385.58;109235;1254;71005;-70
2023/04/24 00:08:29;;;;;;;1.60;1.00;;;;;;;12.03;83.06;99379.43;109444;1253;72481;-70
2023/04/24 00:10:55;;;;;;;1.60;0.70;;;;;;;12.01;83.14;99379.62;109316;1254;61904;-70
2023/04/24 00:13:22;;;;;;;1.50;0.80;;;;;;;11.98;83.44;99382.87;109438;1252;59025;-70
2023/04/24 00:15:48;;;;;;;1.50;0.60;;;;;;;11.95;83.46;99382.40;109326;1253;73146;-70
2023/04/24 00:18:15;;;;;;;2.20;0.90;;;;;;;11.91;83.61;99382.38;109463;1253;70113;-70
2023/04/24 00:20:43;;;;;;;2.80;0.70;;;;;;;11.89;83.60;99382.04;109480;1252;71309;-70
2023/04/24 00:23:10;;;;;;;2.50;0.80;;;;;;;11.86;83.48;99378.80;109418;1252;62104;-70
2023/04/24 00:25:36;;;;;;;1.40;0.70;;;;;;;11.83;83.94;99378.17;109306;1252;60044;-69
2023/04/24 00:28:03;;;;;;;1.20;0.70;;;;;;;11.80;83.88;99368.87;109302;1254;74343;-69
2023/04/24 00:30:30;;;;;;;3.40;0.90;;;;;;;11.76;83.92;99367.74;109302;1253;72446;-69
2023/04/24 00:32:57;;;;;;;1.60;0.80;;;;;;;11.73;84.00;99370.18;109459;1253;71438;-69
2023/04/24 00:35:23;;;;;;;1.80;0.80;;;;;;;11.69;84.06;99371.67;109442;1253;61987;-69
2023/04/24 00:37:50;;;;;;;2.30;0.90;;;;;;;11.64;84.14;99374.45;109343;1253;59358;-69
2023/04/24 00:40:17;;;;;;;1.60;0.90;;;;;;;11.59;84.60;99377.22;109519;1253;74558;-69
2023/04/24 00:42:43;;;;;;;1.80;0.80;;;;;;;11.54;84.58;99380.69;109374;1252;69831;-69
2023/04/24 00:45:13;;;;;;;2.10;0.90;;;;;;;11.48;85.10;99381.05;109363;1253;71179;-69
2023/04/24 00:47:42;;;;;;;1.80;1.00;;;;;;;11.40;85.10;99382.64;109286;1253;61460;-70
2023/04/24 00:50:09;;;;;;;2.40;0.90;;;;;;;11.35;85.45;99383.40;109312;1252;60318;-69
2023/04/24 00:52:36;;;;;;;2.40;0.90;;;;;;;11.28;85.95;99388.77;109487;1253;74742;-70
2023/04/24 00:55:04;;;;;;;1.90;0.90;;;;;;;11.22;86.18;99388.55;109479;1252;69972;-70
2023/04/24 00:57:30;;;;;;;1.60;1.00;;;;;;;11.15;86.84;99390.97;109440;1252;72388;-70
2023/04/24 00:59:57;;;;;;;1.70;0.90;;;;;;;11.10;87.24;99398.83;109383;1253;61697;-70
2023/04/24 01:02:24;;;;;;;2.40;1.10;;;;;;;11.04;87.46;99396.55;109242;1253;58496;-69
2023/04/24 01:04:51;;;;;;;1.70;0.70;;;;;;;10.99;87.58;99396.25;109413;1253;74042;-69
2023/04/24 01:07:20;;;;;;;2.00;0.90;;;;;;;10.96;87.75;99388.02;109433;1252;71428;-70
2023/04/24 01:09:50;;;;;;;2.00;1.10;;;;;;;10.94;87.95;99383.58;109338;1252;72650;-69
2023/04/24 01:12:18;;;;;;;1.70;0.90;;;;;;;10.91;87.64;99379.73;109294;1253;60423;-70
2023/04/24 01:14:45;;;;;;;1.80;0.90;;;;;;;10.95;86.38;99375.50;109465;1253;60049;-70
2023/04/24 01:17:12;;;;;;;2.90;0.60;;;;;;;11.00;85.33;99370.27;109406;1253;74385;-70
2023/04/24 01:19:39;;;;;;;2.10;0.90;;;;;;;11.09;83.88;99366.65;109464;1252;69071;-71
2023/04/24 01:22:12;;;;;;;1.50;0.70;;;;;;;11.16;83.02;99366.09;109461;1253;73359;-71
2023/04/24 01:24:39;;;;;;;1.70;0.80;;;;;;;11.23;82.13;99364.75;109447;1252;60920;-71
2023/04/24 01:27:06;;;;;;;1.60;0.70;;;;;;;11.29;81.86;99368.31;109294;1252;59026;-70
2023/04/24 01:29:34;;;;;;;1.70;0.80;;;;;;;11.33;81.07;99367.75;109308;1252;73498;-71
2023/04/24 01:32:00;;;;;;;1.60;0.70;;;;;;;11.37;80.47;99366.80;109373;1252;71359;-71
2023/04/24 01:34:27;;;;;;;2.60;0.80;;;;;;;11.41;80.38;99369.52;109273;1253;71124;-71
2023/04/24 01:36:54;;;;;;;1.90;0.80;;;;;;;11.44;80.33;99373.55;109381;1253;61997;-70
2023/04/24 01:39:23;;;;;;;1.30;0.60;;;;;;;11.45;80.28;99369.70;109498;1253;59141;-71
2023/04/24 01:41:50;;;;;;;1.70;0.60;;;;;;;11.43;80.27;99367.59;109376;1253;74783;-71
2023/04/24 01:44:17;;;;;;;1.30;0.60;;;;;;;11.42;80.33;99370.42;109511;1252;69990;-71
2023/04/24 01:46:44;;;;;;;1.40;0.60;;;;;;;11.41;80.24;99369.23;109391;1253;71109;-70
2023/04/24 01:49:11;;;;;;;2.60;0.60;;;;;;;11.41;79.96;99368.21;109467;1253;60444;-71
2023/04/24 01:51:38;;;;;;;1.40;0.70;;;;;;;11.41;80.01;99362.90;109456;1253;58968;-71
2023/04/24 01:54:05;;;;;;;0.90;0.60;;;;;;;11.42;79.71;99363.47;109421;1252;73353;-70
2023/04/24 01:56:37;;;;;;;2.00;0.80;;;;;;;11.41;79.90;99364.45;109434;1253;69946;-70
2023/04/24 01:59:04;;;;;;;1.30;0.70;;;;;;;11.40;79.75;99363.89;109346;1253;71204;-70
2023/04/24 02:01:37;;;;;;;2.20;0.70;;;;;;;11.40;79.80;99363.64;109403;1253;59477;-70
2023/04/24 02:04:05;;;;;;;2.00;1.00;;;;;;;11.38;79.94;99366.75;109310;1253;58888;-70
2023/04/24 02:06:32;;;;;;;1.50;0.70;;;;;;;11.36;80.05;99361.21;109462;1252;73216;-71
2023/04/24 02:08:59;;;;;;;1.50;0.60;;;;;;;11.33;80.28;99361.67;109390;1253;70645;-70
2023/04/24 02:11:26;;;;;;;2.30;0.70;;;;;;;11.30;80.55;99358.59;109178;1252;72749;-71
2023/04/24 02:13:53;;;;;;;1.10;0.70;;;;;;;11.29;80.67;99355.73;109026;1253;60615;-70
2023/04/24 02:16:20;;;;;;;1.40;0.80;;;;;;;11.27;80.83;99353.21;109437;1252;60359;-71
2023/04/24 02:18:46;;;;;;;2.50;0.80;;;;;;;11.27;80.80;99346.92;109285;1253;72589;-71
2023/04/24 02:21:13;;;;;;;1.70;0.70;;;;;;;11.26;80.94;99346.48;109366;1253;69928;-71
2023/04/24 02:23:39;;;;;;;2.30;0.70;;;;;;;11.27;81.08;99343.38;109442;1253;71767;-71
2023/04/24 02:26:06;;;;;;;1.60;0.70;;;;;;;11.26;80.58;99342.56;109439;1253;60816;-71
2023/04/24 02:28:33;;;;;;;1.50;0.80;;;;;;;11.25;80.49;99337.74;109350;1252;59237;-71
2023/04/24 02:31:00;;;;;;;1.90;0.70;;;;;;;11.25;80.79;99337.73;109382;1252;73299;-71
2023/04/24 02:33:26;;;;;;;1.70;0.80;;;;;;;11.23;81.02;99340.98;109276;1253;309128;-71
2023/04/24 02:35:53;;;;;;;2.20;0.80;;;;;;;11.18;81.23;99340.48;109252;1253;71103;-71
2023/04/24 02:38:20;;;;;;;1.80;0.70;;;;;;;11.15;81.38;99341.59;109372;1252;59132;-71
2023/04/24 02:40:46;;;;;;;2.00;0.80;;;;;;;11.13;81.44;99342.75;109458;1253;58863;-71
2023/04/24 02:43:13;;;;;;;2.20;0.90;;;;;;;11.10;81.36;99346.19;109491;1253;73462;-71
2023/04/24 02:45:39;;;;;;;1.30;0.70;;;;;;;11.07;81.58;99345.55;109442;1252;70751;-71
2023/04/24 02:48:06;;;;;;;2.40;0.90;;;;;;;11.02;81.76;99347.73;109387;1252;58965;-70
2023/04/24 02:50:33;;;;;;;2.00;0.80;;;;;;;10.98;81.88;99346.56;109390;1253;61725;-71
2023/04/24 02:53:00;;;;;;;2.10;1.10;;;;;;;10.95;81.91;99344.83;109212;1253;60065;-71
2023/04/24 02:55:26;;;;;;;2.40;0.90;;;;;;;10.92;82.05;99346.80;109380;1253;73475;-71
2023/04/24 02:57:53;;;;;;;1.50;0.80;;;;;;;10.90;81.85;99348.08;109403;1253;72711;-71
2023/04/24 03:00:20;;;;;;;3.00;0.90;;;;;;;10.87;82.03;99344.05;109386;1254;72587;-71
2023/04/24 03:02:47;;;;;;;2.10;0.90;;;;;;;10.86;81.89;99343.16;109223;1253;60812;-71
2023/04/24 03:05:14;;;;;;;2.10;0.90;;;;;;;10.82;82.00;99344.89;109450;1252;60576;-70
2023/04/24 03:07:40;;;;;;;1.50;0.80;;;;;;;10.77;82.25;99344.61;109419;1253;73473;-71
2023/04/24 03:10:07;;;;;;;1.90;1.00;;;;;;;10.74;82.10;99344.38;109317;1252;71173;-70
2023/04/24 03:12:34;;;;;;;1.80;0.90;;;;;;;10.68;82.30;99340.06;109382;1253;71908;-70
2023/04/24 03:15:01;;;;;;;1.40;0.80;;;;;;;10.61;82.77;99342.45;109344;1253;60928;-71
2023/04/24 03:17:27;;;;;;;2.10;1.10;;;;;;;10.53;83.00;99342.40;109468;1252;60123;-71
2023/04/24 03:19:54;;;;;;;2.00;1.00;;;;;;;10.45;83.11;99337.32;109466;1253;74499;-71
2023/04/24 03:22:20;;;;;;;1.80;0.90;;;;;;;10.40;83.53;99339.73;109482;1253;59024;-71
2023/04/24 03:24:47;;;;;;;1.50;0.80;;;;;;;10.37;83.46;99341.55;109391;1253;72520;-71
2023/04/24 03:27:14;;;;;;;1.30;0.70;;;;;;;10.36;82.92;99334.80;109427;1253;62310;-71
2023/04/24 03:29:41;;;;;;;2.70;0.70;;;;;;;10.39;81.98;99337.78;109418;1253;58976;-71
2023/04/24 03:32:08;;;;;;;1.40;0.70;;;;;;;10.43;81.74;99335.89;109326;1253;74471;-71
2023/04/24 03:34:34;;;;;;;2.20;0.80;;;;;;;10.44;81.32;99332.38;109367;1253;70003;-71
2023/04/24 03:37:01;;;;;;;2.50;0.80;;;;;;;10.44;81.01;99326.72;109298;1253;72676;-71
2023/04/24 03:39:28;;;;;;;1.80;0.70;;;;;;;10.44;80.70;99324.96;109409;1253;60308;-71
2023/04/24 03:41:55;;;;;;;1.50;0.70;;;;;;;10.43;80.53;99331.40;109313;1253;58968;-71
2023/04/24 03:44:22;;;;;;;1.60;0.70;;;;;;;10.43;80.37;99334.20;109246;1253;73468;-71
2023/04/24 03:46:49;;;;;;;1.30;0.60;;;;;;;10.41;80.43;99330.76;109210;1253;69924;-71
2023/04/24 03:49:15;;;;;;;2.80;0.80;;;;;;;10.41;80.37;99330.42;109468;1252;70792;-71
2023/04/24 03:51:42;;;;;;;1.80;0.70;;;;;;;10.40;80.44;99328.84;109309;1252;60454;-71
2023/04/24 03:54:09;;;;;;;2.20;0.70;;;;;;;10.36;80.52;99327.39;109338;1253;59121;-71
2023/04/24 03:56:35;;;;;;;2.00;0.70;;;;;;;10.35;80.43;99324.17;109455;1252;74649;-71
2023/04/24 03:59:02;;;;;;;1.60;0.60;;;;;;;10.35;80.49;99320.01;109446;1253;70902;-71
2023/04/24 04:01:30;;;;;;;1.50;0.60;;;;;;;10.34;80.51;99317.92;109378;1252;71559;-71
2023/04/24 04:03:57;;;;;;;1.20;0.70;;;;;;;10.33;80.43;99313.20;109212;1253;60288;-71
2023/04/24 04:06:24;;;;;;;1.40;0.90;;;;;;;10.32;80.72;99312.39;109453;1253;60446;-71
2023/04/24 04:08:50;;;;;;;1.60;0.60;;;;;;;10.31;80.48;99314.70;109288;1253;74653;-71
2023/04/24 04:11:17;;;;;;;1.40;0.70;;;;;;;10.30;80.76;99316.27;109421;1253;69746;-71
2023/04/24 04:13:45;;;;;;;1.70;0.80;;;;;;;10.30;80.49;99317.11;109434;1253;72723;-71
2023/04/24 04:16:12;;;;;;;1.20;0.60;;;;;;;10.33;80.24;99317.55;109479;1253;60779;-71
2023/04/24 04:18:39;;;;;;;2.50;0.60;;;;;;;10.36;80.24;99318.41;109424;1253;59985;-71
2023/04/24 04:21:05;;;;;;;1.40;0.60;;;;;;;10.38;80.13;99323.58;109435;1253;73462;-71
2023/04/24 04:23:32;;;;;;;1.60;0.80;;;;;;;10.41;80.19;99321.61;109381;1253;69899;-71
2023/04/24 04:25:59;;;;;;;1.50;0.60;;;;;;;10.42;80.28;99320.15;109176;1253;71482;-71
2023/04/24 04:28:26;;;;;;;1.30;0.50;;;;;;;10.41;80.18;99313.62;109232;1253;60543;-72
2023/04/24 04:30:57;;;;;;;1.40;0.60;;;;;;;10.42;80.31;99313.90;109422;1253;59095;-73
2023/04/24 04:33:25;;;;;;;1.50;0.70;;;;;;;10.43;80.10;99307.73;109395;1252;76119;-73
2023/04/24 04:35:53;;;;;;;1.10;0.70;;;;;;;10.43;80.35;99310.94;109400;1254;71293;-73
2023/04/24 04:38:20;;;;;;;1.20;0.60;;;;;;;10.43;80.27;99308.89;109259;1254;71816;-73
2023/04/24 04:40:47;;;;;;;1.20;0.50;;;;;;;10.43;80.33;99304.98;109304;1253;59759;-73
2023/04/24 04:43:15;;;;;;;1.70;0.50;;;;;;;10.44;80.17;99310.32;109244;1252;59523;-73
2023/04/24 04:45:43;;;;;;;1.50;0.60;;;;;;;10.44;80.18;99311.62;109294;1253;74736;-73
2023/04/24 04:48:12;;;;;;;1.40;0.60;;;;;;;10.46;80.15;99316.31;109342;1253;70003;-73
2023/04/24 04:50:39;;;;;;;1.10;0.60;;;;;;;10.47;80.16;99318.92;109472;1253;72754;-72
2023/04/24 04:53:06;;;;;;;1.30;0.50;;;;;;;10.50;80.01;99328.41;109449;1253;60831;-73
2023/04/24 04:55:33;;;;;;;1.50;0.60;;;;;;;10.57;80.03;99324.88;109465;1253;58948;-72
2023/04/24 04:58:00;;;;;;;1.50;0.60;;;;;;;10.63;79.90;99330.01;109327;1253;73125;-72
2023/04/24 05:00:28;;;;;;;0.90;0.50;;;;;;;10.67;79.58;99328.97;109513;1253;70743;-72
2023/04/24 05:02:55;;;;;;;4.20;0.70;;;;;;;10.69;79.49;99330.71;109460;1253;71147;-72
2023/04/24 05:05:41;;;;;;;3.00;1.00;;;;;;;10.71;79.65;99332.25;109345;1252;60494;-72
2023/04/24 05:08:08;;;;;;;4.30;1.40;;;;;;;10.71;79.76;99335.08;109535;1252;59285;-73
2023/04/24 05:10:51;;;;;;;5.40;1.50;;;;;;;10.70;79.88;99337.29;109380;1253;74684;-73
2023/04/24 05:13:18;;;;;;;6.40;1.70;;;;;;;10.69;80.07;99336.92;109453;1254;71274;-73
2023/04/24 05:15:58;;;;;;;6.50;1.50;;;;;;;10.70;80.23;99335.54;109416;1253;71818;-72
2023/04/24 05:18:24;;;;;;;4.30;1.40;;;;;;;10.73;80.53;99329.13;109281;1253;61796;-73
2023/04/24 05:20:51;;;;;;;3.80;1.20;;;;;;;10.75;80.53;99328.54;109410;1253;59241;-72
2023/04/24 05:23:18;;;;;;;2.70;1.00;;;;;;;10.77;80.41;99331.55;109495;1253;73108;-72
2023/04/24 05:25:46;;;;;;;3.30;1.10;;;;;;;10.82;80.58;99335.53;109496;1252;70820;-73
2023/04/24 05:28:12;;;;;;;2.10;0.80;;;;;;;10.86;80.32;99331.27;109425;1253;71508;-73
2023/04/24 05:30:39;;;;;;;1.10;0.60;;;;;;;10.91;80.30;99338.52;109482;1254;60483;-73
2023/04/24 05:33:06;;;;;;;1.90;0.80;;;;;;;10.97;80.37;99339.67;109442;1253;61222;-73
2023/04/24 05:35:33;;;;;;;1.30;0.80;;;;;;;11.04;80.55;99343.81;109474;1253;74365;-73
2023/04/24 05:38:00;;;;;;;1.90;0.70;;;;;;;11.08;80.26;99344.12;109341;1253;58965;-73
2023/04/24 05:40:26;;;;;;;3.20;1.00;;;;;;;11.14;80.55;99344.70;109452;1254;72386;-73
2023/04/24 05:42:53;;;;;;;2.00;0.70;;;;;;;11.19;80.31;99346.85;109331;1253;58894;-73
2023/04/24 05:45:20;;;;;;;2.00;0.80;;;;;;;11.27;80.23;99347.74;109411;1253;60340;-73
2023/04/24 05:47:46;;;;;;;2.50;0.80;;;;;;;11.37;79.86;99351.48;109360;1254;74238;-71
2023/04/24 05:50:13;;;;;;;5.10;3.20;;;;;;;11.49;79.82;99348.59;109448;1254;69559;-71
2023/04/24 05:52:40;;;;;;;15.30;9.80;;;;;;;11.60;79.27;99352.36;109492;1252;72387;-71
2023/04/24 05:55:07;;;;;;;6.00;3.00;;;;;;;11.71;79.34;99350.17;109519;1253;60449;-71
2023/04/24 05:57:34;;;;;;;7.60;3.50;;;;;;;11.80;78.75;99351.54;109483;1253;60034;-71
2023/04/24 06:00:00;;;;;;;2.50;1.10;;;;;;;11.94;78.12;99353.62;109473;1252;75201;-71
2023/04/24 06:02:27;;;;;;;3.00;1.60;;;;;;;12.10;77.01;99348.59;109448;1254;58986;-71
2023/04/24 06:04:55;;;;;;;3.00;2.00;;;;;;;12.24;76.82;99346.95;109317;1253;71333;-71
2023/04/24 06:07:21;;;;;;;7.40;3.30;;;;;;;12.29;75.90;99343.80;109416;1253;62208;-71
2023/04/24 06:09:48;;;;;;;4.10;2.20;;;;;;;12.29;74.46;99355.34;109448;1254;58890;-71
2023/04/24 06:12:15;;;;;;;3.10;1.80;;;;;;;12.30;73.62;99348.73;109414;1252;59241;-71
2023/04/24 06:14:41;;;;;;;3.30;1.70;;;;;;;12.28;72.69;99352.77;109212;1253;70285;-71
2023/04/24 06:17:08;;;;;;;3.50;1.20;;;;;;;12.27;72.19;99352.52;109502;1252;72775;-71
2023/04/24 06:19:34;;;;;;;9.70;5.00;;;;;;;12.31;72.41;99350.98;109442;1253;60547;-71
2023/04/24 06:22:01;;;;;;;4.70;2.70;;;;;;;12.30;72.01;99356.87;109430;1253;58886;-71
2023/04/24 06:24:28;;;;;;;2.00;1.20;;;;;;;12.25;71.97;99371.08;109360;1253;75696;-71
2023/04/24 06:26:56;;;;;;;15.80;11.50;;;;;;;12.10;71.01;99375.23;109443;1253;71041;-71
2023/04/24 06:29:23;;;;;;;5.60;3.50;;;;;;;11.97;72.08;99376.80;109355;1254;73216;-71
2023/04/24 06:31:50;;;;;;;2.50;1.10;;;;;;;11.87;73.00;99377.73;109505;1253;60489;-71
2023/04/24 06:34:16;;;;;;;4.40;2.00;;;;;;;11.75;72.81;99374.14;109297;1258;59163;-71
2023/04/24 06:36:43;;;;;;;7.60;5.10;;;;;;;11.67;73.25;99373.04;109513;1253;73673;-70
2023/04/24 06:39:09;;;;;;;3.80;1.60;;;;;;;11.59;73.27;99379.48;109260;1253;70907;-70
2023/04/24 06:41:36;;;;;;;1.60;0.90;;;;;;;11.55;72.99;99374.14;109301;1253;58459;-70
2023/04/24 06:44:02;;;;;;;2.20;1.30;;;;;;;11.56;73.19;99381.77;109251;1253;60422;-70
2023/04/24 06:46:29;;;;;;;2.30;1.30;;;;;;;11.59;73.05;99377.83;109431;1253;58950;-70
2023/04/24 06:48:56;;;;;;;3.80;1.70;;;;;;;11.70;72.95;99383.20;109352;1254;73222;-70
2023/04/24 06:51:24;;;;;;;5.50;2.30;;;;;;;11.84;72.84;99386.05;109477;1253;71205;-70
2023/04/24 06:53:51;;;;;;;9.80;5.50;;;;;;;11.98;72.69;99389.89;109444;1253;71288;-70
2023/04/24 06:56:18;;;;;;;4.40;2.00;;;;;;;12.09;71.81;99389.98;109417;1252;60712;-70
2023/04/24 06:58:45;;;;;;;2.90;1.20;;;;;;;12.19;71.46;99391.41;109344;1253;58839;-70
2023/04/24 07:01:11;;;;;;;6.10;3.50;;;;;;;12.26;70.96;99394.30;109492;1253;73793;-70
2023/04/24 07:03:38;;;;;;;2.60;1.50;;;;;;;12.30;70.77;99399.30;109399;1253;70188;-71
2023/04/24 07:06:05;;;;;;;3.80;2.20;;;;;;;12.32;70.56;99402.46;109116;1254;71311;-70
2023/04/24 07:08:32;;;;;;;6.10;4.30;;;;;;;12.29;69.90;99401.55;109305;1253;60412;-70
2023/04/24 07:11:00;;;;;;;2.40;1.60;;;;;;;12.29;70.21;99402.69;109289;1252;58786;-70
2023/04/24 07:13:26;;;;;;;3.50;2.00;;;;;;;12.28;70.24;99404.30;109313;1253;74354;-70
2023/04/24 07:15:54;;;;;;;5.50;2.10;;;;;;;12.28;70.83;99399.43;109138;1253;70086;-70
2023/04/24 07:18:21;;;;;;;4.50;1.90;;;;;;;12.29;70.58;99405.86;109311;1254;72568;-70
2023/04/24 07:20:51;;;;;;;4.00;3.00;;;;;;;12.26;70.36;99406.78;109387;1253;60070;-70
2023/04/24 07:23:19;;;;;;;5.00;2.90;;;;;;;12.17;70.07;99406.39;109411;1253;58862;-69
2023/04/24 07:25:46;;;;;;;5.60;3.70;;;;;;;12.08;68.63;99408.52;109417;1253;73883;-69
2023/04/24 07:28:13;;;;;;;3.20;2.30;;;;;;;12.04;68.12;99407.11;109497;1253;70217;-70
2023/04/24 07:30:39;;;;;;;4.30;2.90;;;;;;;12.09;68.66;99406.71;109353;1253;70139;-70
2023/04/24 07:33:06;;;;;;;4.40;3.10;;;;;;;12.17;68.63;99405.82;109444;1254;60432;-69
2023/04/24 07:35:33;;;;;;;4.80;3.50;;;;;;;12.27;67.82;99411.35;109420;1254;59127;-70
2023/04/24 07:38:00;;;;;;;6.20;3.70;;;;;;;12.39;66.30;99413.41;109221;1254;74459;-70
2023/04/24 07:40:26;;;;;;;3.80;2.80;;;;;;;12.57;66.39;99415.25;109474;1254;69704;-70
2023/04/24 07:42:53;;;;;;;7.90;4.30;;;;;;;12.73;64.88;99415.46;109395;1254;58899;-69
2023/04/24 07:45:20;;;;;;;4.10;3.20;;;;;;;12.92;64.88;99414.37;109429;1252;58974;-69
2023/04/24 07:47:46;;;;;;;5.20;3.50;;;;;;;12.96;62.65;99422.02;109318;1253;59053;-69
2023/04/24 07:50:13;;;;;;;4.00;3.20;;;;;;;13.00;61.85;99425.09;109359;1252;73446;-70
2023/04/24 07:52:39;;;;;;;6.00;4.40;;;;;;;13.06;62.15;99421.96;109464;1254;59043;-69
2023/04/24 07:55:06;;;;;;;3.80;3.10;;;;;;;13.11;61.92;99422.55;109442;1253;59061;-69
2023/04/24 07:57:33;;;;;;;5.10;4.10;;;;;;;13.26;61.92;99426.23;109301;1254;59153;-69
2023/04/24 08:00:00;;;;;;;5.30;3.90;;;;;;;13.42;62.32;99420.92;109195;1253;59779;-69
2023/04/24 08:02:26;;;;;;;5.20;3.90;;;;;;;13.55;60.89;99418.92;109457;1253;58953;-70
2023/04/24 08:04:54;;;;;;;6.40;3.80;;;;;;;13.68;60.26;99420.13;109521;1253;69978;-70
2023/04/24 08:07:21;;;;;;;6.20;4.00;;;;;;;13.83;59.53;99422.54;109459;1253;72493;-70
2023/04/24 08:09:48;;;;;;;4.40;3.70;;;;;;;13.95;58.59;99425.08;109439;1253;59601;-70
2023/04/24 08:12:14;;;;;;;5.90;4.30;;;;;;;13.92;57.89;99421.01;109434;1254;61453;-70
2023/04/24 08:14:41;;;;;;;6.40;4.20;;;;;;;13.84;57.78;99429.13;109475;1254;74674;-70
2023/04/24 08:17:08;;;;;;;5.60;4.20;;;;;;;13.89;57.94;99441.23;109444;1253;69963;-70
2023/04/24 08:19:35;;;;;;;10.50;4.50;;;;;;;13.99;58.22;99421.39;109458;1253;59366;-70
2023/04/24 08:22:02;;;;;;;7.30;4.40;;;;;;;14.27;58.64;99430.82;109206;1254;59038;-70
2023/04/24 08:24:28;;;;;;;8.00;4.70;;;;;;;14.38;58.33;99433.23;109532;1254;60515;-70
2023/04/24 08:26:57;;;;;;;5.60;4.10;;;;;;;14.23;56.93;99450.25;109459;1253;58917;-70
2023/04/24 08:29:24;;;;;;;5.40;3.80;;;;;;;14.09;56.68;99450.54;109324;1253;71639;-70
2023/04/24 08:31:51;;;;;;;5.20;4.00;;;;;;;14.01;55.66;99455.88;109462;1254;72266;-69
2023/04/24 08:34:17;;;;;;;9.00;6.10;;;;;;;13.98;55.12;99457.11;109353;1253;59097;-70
2023/04/24 08:36:44;;;;;;;5.50;3.70;;;;;;;13.99;54.86;99452.99;109449;1253;59035;-69
2023/04/24 08:39:14;;;;;;;4.40;3.70;;;;;;;13.98;55.10;99460.30;109215;1254;73779;-69
2023/04/24 08:41:45;;;;;;;4.60;3.40;;;;;;;13.87;55.82;99447.16;109524;1253;70083;-70
2023/04/24 08:44:16;;;;;;;4.80;3.90;;;;;;;13.78;55.11;99447.31;109189;1253;72707;-69
2023/04/24 08:46:45;;;;;;;5.80;4.30;;;;;;;13.73;56.22;99443.60;109475;1256;59155;-69
2023/04/24 08:49:13;;;;;;;5.00;4.00;;;;;;;13.78;55.88;99449.44;109519;1253;60344;-69
2023/04/24 08:51:40;;;;;;;8.90;5.80;;;;;;;13.75;55.02;99444.48;109445;1253;73529;-69
2023/04/24 08:54:07;;;;;;;8.10;5.90;;;;;;;13.71;55.84;99467.03;109429;1254;69664;-69
2023/04/24 08:56:37;;;;;;;6.70;4.30;;;;;;;13.75;56.52;99458.58;109451;1254;72708;-69
2023/04/24 08:59:05;;;;;;;5.90;3.70;;;;;;;13.84;56.01;99459.02;109243;1254;59383;-69
2023/04/24 09:01:33;;;;;;;8.10;5.10;;;;;;;14.00;56.36;99456.71;109462;1254;60062;-70
2023/04/24 09:04:03;;;;;;;4.70;3.50;;;;;;;14.08;56.15;99455.36;109475;1253;74311;-69
2023/04/24 09:06:31;;;;;;;4.50;3.40;;;;;;;14.13;55.21;99462.55;109483;1254;69790;-69
2023/04/24 09:09:03;;;;;;;4.80;3.70;;;;;;;14.22;55.46;99459.03;109428;1254;72508;-70
2023/04/24 09:11:31;;;;;;;5.80;4.10;;;;;;;14.43;55.35;99472.14;109301;1254;59362;-69
2023/04/24 09:13:58;;;;;;;5.30;4.10;;;;;;;14.24;53.72;99472.95;109278;1254;60053;-70
2023/04/24 09:16:26;;;;;;;5.80;4.10;;;;;;;13.94;54.61;99480.79;109508;1253;74453;-69
2023/04/24 09:18:53;;;;;;;5.50;3.50;;;;;;;13.71;54.90;99480.64;109305;1254;72437;-69
2023/04/24 09:21:21;;;;;;;5.70;4.40;;;;;;;13.68;55.77;99479.02;109471;1253;72386;-69
2023/04/24 09:24:02;;;;;;;5.70;4.10;;;;;;;13.60;55.63;99482.39;109444;1254;58970;-69
2023/04/24 09:26:31;;;;;;;4.60;3.20;;;;;;;13.68;55.79;99481.31;109199;1253;59385;-69
2023/04/24 09:28:58;;;;;;;5.00;3.00;;;;;;;13.79;55.18;99485.22;109484;1253;74760;-69
2023/04/24 09:31:27;;;;;;;7.90;5.00;;;;;;;13.91;55.63;99474.30;109507;1254;70878;-69
2023/04/24 09:33:56;;;;;;;5.20;3.40;;;;;;;14.01;55.74;99473.39;109462;1254;71445;-69
2023/04/24 09:36:36;;;;;;;7.90;4.10;;;;;;;13.97;54.97;99478.14;109233;1254;59053;-69
2023/04/24 09:39:05;;;;;;;6.10;4.60;;;;;;;13.76;55.03;99491.45;109217;1253;59372;-70
2023/04/24 09:41:32;;;;;;;3.70;2.60;;;;;;;13.61;55.27;99488.16;109476;1253;72248;-69
2023/04/24 09:44:16;;;;;;;3.30;2.00;;;;;;;13.47;54.52;99493.45;109270;1257;71533;-69
2023/04/24 09:46:45;;;;;;;3.90;2.50;;;;;;;13.37;54.49;99496.64;109239;1254;71788;-69
2023/04/24 09:49:16;;;;;;;2.40;1.90;;;;;;;13.34;54.57;99498.27;109487;1255;59038;-69
2023/04/24 09:51:43;;;;;;;3.00;2.30;;;;;;;13.54;54.84;99494.89;109419;1254;58936;-69
2023/04/24 09:54:17;;;;;;;2.80;2.30;;;;;;;13.76;54.15;99494.69;109438;1254;74468;-69
2023/04/24 09:56:46;;;;;;;4.40;3.00;;;;;;;13.99;53.78;99487.05;109340;1254;69719;-69
2023/04/24 09:59:13;;;;;;;4.70;3.40;;;;;;;14.19;53.53;99484.94;109302;1253;73147;-69
2023/04/24 10:01:44;;;;;;;6.10;4.50;;;;;;;14.26;53.72;99477.33;109507;1254;59041;-69
2023/04/24 10:04:16;;;;;;;8.30;5.80;;;;;;;14.22;53.25;99476.68;109439;1253;59321;-70
2023/04/24 10:06:44;;;;;;;8.80;5.30;;;;;;;13.95;52.71;99496.85;109501;1254;74956;-70
2023/04/24 10:09:12;;;;;;;5.40;3.60;;;;;;;13.71;53.52;99493.65;109339;1253;71177;-70
2023/04/24 10:11:45;;;;;;;4.80;3.50;;;;;;;13.53;54.15;99488.09;109294;1254;71465;-70
2023/04/24 10:14:17;;;;;;;10.00;5.30;;;;;;;13.34;54.90;99495.32;109260;1259;59196;-70
2023/04/24 10:16:46;;;;;;;4.70;3.10;;;;;;;13.17;55.73;99487.28;109332;1253;59034;-70
2023/04/24 10:19:15;;;;;;;5.30;2.30;;;;;;;13.02;56.00;99486.48;109423;1255;75192;-70
2023/04/24 10:21:46;;;;;;;5.70;3.30;;;;;;;13.01;56.76;99481.02;109450;1253;71167;-69
2023/04/24 10:24:17;;;;;;;3.80;2.30;;;;;;;13.01;56.64;99480.65;109380;1254;71456;-69
2023/04/24 10:26:45;;;;;;;6.40;4.70;;;;;;;13.02;56.49;99482.20;109287;1254;59000;-70
2023/04/24 10:29:15;;;;;;;4.10;2.60;;;;;;;13.18;56.54;99481.46;109418;1253;59492;-70
2023/04/24 10:31:45;;;;;;;4.00;2.30;;;;;;;13.50;56.17;99478.05;109222;1253;74902;-69
2023/04/24 10:34:14;;;;;;;4.10;2.60;;;;;;;13.89;55.41;99476.74;109363;1254;71320;-69
2023/04/24 10:36:49;;;;;;;2.50;1.80;;;;;;;14.12;55.07;99482.42;109497;1254;72746;-70
2023/04/24 10:39:16;;;;;;;2.60;1.90;;;;;;;14.22;54.45;99482.35;109428;1255;59591;-69
2023/04/24 10:41:44;;;;;;;4.80;3.40;;;;;;;14.00;53.71;99480.34;109443;1254;59124;-69
2023/04/24 10:44:13;;;;;;;3.30;2.00;;;;;;;13.77;54.15;99483.89;109526;1253;73019;-70
2023/04/24 10:46:44;;;;;;;3.10;1.70;;;;;;;13.58;55.31;99480.58;109497;1254;70777;-69
2023/04/24 10:49:10;;;;;;;2.80;1.70;;;;;;;13.44;55.71;99485.70;109442;1254;72798;-70
2023/04/24 10:51:52;;;;;;;8.30;5.30;;;;;;;13.27;56.03;99487.61;109271;1254;58935;-70
2023/04/24 10:54:49;;;;;;;8.00;5.40;;;;;;;13.12;56.52;99486.73;109273;1254;58972;-70
2023/04/24 10:57:19;;;;;;;5.20;3.20;;;;;;;12.99;56.99;99483.74;109383;1254;74567;-70
2023/04/24 10:59:47;;;;;;;3.20;1.50;;;;;;;12.89;57.31;99491.09;109424;1253;71188;-74
2023/04/24 11:02:18;;;;;;;2.50;1.60;;;;;;;12.91;58.01;99487.64;109318;1254;72438;-74
2023/04/24 11:04:45;;;;;;;2.60;1.60;;;;;;;13.03;58.08;99490.10;109215;1253;59679;-74
2023/04/24 11:07:12;;;;;;;3.00;1.70;;;;;;;13.13;57.56;99488.18;109370;1254;59090;-74
2023/04/24 11:09:42;;;;;;;3.50;1.50;;;;;;;13.15;56.68;99492.84;109461;1254;73415;-74
2023/04/24 11:12:12;;;;;;;2.20;1.40;;;;;;;13.12;56.42;99492.02;109442;1254;71008;-74
2023/04/24 11:14:57;;;;;;;2.20;1.40;;;;;;;13.08;57.12;99491.35;109085;1253;71781;-75
2023/04/24 11:17:37;;;;;;;2.90;1.30;;;;;;;12.98;57.53;99491.54;109455;1252;58929;-74
2023/04/24 11:20:09;;;;;;;3.30;1.50;;;;;;;12.87;57.92;99495.95;109284;1253;60585;-74
2023/04/24 11:22:54;;;;;;;2.50;1.50;;;;;;;12.71;59.40;99497.52;109507;1254;74568;-75
2023/04/24 11:25:22;;;;;;;4.00;1.60;;;;;;;12.54;60.81;99495.70;109329;1254;70849;-75
2023/04/24 11:27:50;;;;;;;2.70;1.40;;;;;;;12.41;62.28;99495.60;109378;1254;70304;-74